Time;durP1;ratioP1;P1;durP2;ratioP2;P2;SDS_P1;SDS_P2;PMS_P1;PMS_P2;Temp;Humidity;BMP_temperature;BMP_pressure;BME280_temperature;BME280_humidity;BME280_pressure;Samples;Min_cycle;Max_cycle;Signal;HPM_P1;HPM_P2
2024/01/19 00:06:42;;;;;;;;;;;0.30;99.90;;;;;;8458350;28;20332;-78
2024/01/19 00:10:43;;;;;;;;;;;0.40;99.90;;;;;;8460277;28;19947;-77
2024/01/19 00:14:45;;;;;;;;;;;0.50;99.90;;;;;;8461365;27;19924;-78
2024/01/19 00:18:47;;;;;;;;;;;0.60;99.90;;;;;;8460697;28;19935;-78
2024/01/19 00:22:49;;;;;;;;;;;0.60;99.90;;;;;;8457057;27;19976;-77
2024/01/19 00:26:51;;;;;;;;;;;0.70;99.90;;;;;;8432450;28;19927;-78
2024/01/19 00:30:52;;;;;;;;;;;0.70;99.90;;;;;;8456252;28;19927;-78
2024/01/19 00:34:54;;;;;;;;;;;0.80;99.90;;;;;;8460710;27;19924;-78
2024/01/19 00:38:56;;;;;;;;;;;0.70;99.90;;;;;;8457355;28;20005;-78
2024/01/19 00:42:58;;;;;;;;;;;0.70;99.90;;;;;;8459333;27;19924;-78
2024/01/19 00:52:28;;;;;;;;;;;0.60;99.90;;;;;;8448885;28;19962;-78
2024/01/19 00:56:29;;;;;;;;;;;0.70;99.90;;;;;;8451986;28;19958;-78
2024/01/19 01:00:31;;;;;;;;;;;0.70;99.90;;;;;;8453787;28;20372;-78
2024/01/19 01:04:33;;;;;;;;;;;0.60;99.90;;;;;;8456517;28;19924;-78
2024/01/19 01:08:35;;;;;;;;;;;0.60;99.90;;;;;;8453567;28;19974;-78
2024/01/19 01:12:37;;;;;;;;;;;0.60;99.90;;;;;;8456315;28;19987;-78
2024/01/19 01:16:38;;;;;;;;;;;0.60;99.90;;;;;;8453728;28;19974;-78
2024/01/19 01:20:40;;;;;;;;;;;0.60;99.90;;;;;;8437355;28;19932;-78
2024/01/19 01:24:41;;;;;;;;;;;0.50;99.90;;;;;;8453500;28;19927;-78
2024/01/19 01:28:43;;;;;;;;;;;0.50;99.90;;;;;;8451138;28;20371;-78
2024/01/19 01:32:45;;;;;;;;;;;0.40;99.90;;;;;;8454779;28;19951;-78
2024/01/19 01:36:47;;;;;;;;;;;0.40;99.90;;;;;;8452285;27;19924;-78
2024/01/19 01:40:48;;;;;;;;;;;0.30;99.90;;;;;;8457096;28;19965;-78
2024/01/19 01:44:50;;;;;;;;;;;0.30;99.90;;;;;;8455551;28;19924;-78
2024/01/19 01:48:52;;;;;;;;;;;0.30;99.90;;;;;;8453217;28;19931;-78
2024/01/19 01:52:54;;;;;;;;;;;0.20;99.90;;;;;;8437394;28;19927;-78
2024/01/19 01:56:56;;;;;;;;;;;0.20;99.90;;;;;;8455757;28;20519;-78
2024/01/19 02:00:58;;;;;;;;;;;0.20;99.90;;;;;;8454671;28;19947;-78
2024/01/19 02:05:00;;;;;;;;;;;0.10;99.90;;;;;;8455194;28;20306;-78
2024/01/19 02:09:02;;;;;;;;;;;0.10;99.90;;;;;;8434902;28;19931;-78
2024/01/19 02:13:04;;;;;;;;;;;0.00;99.90;;;;;;8453835;28;19923;-78
2024/01/19 02:17:05;;;;;;;;;;;-0.10;99.90;;;;;;8450801;28;19924;-77
2024/01/19 02:21:07;;;;;;;;;;;-0.10;99.90;;;;;;8456229;28;19931;-77
2024/01/19 02:25:09;;;;;;;;;;;-0.10;99.90;;;;;;8453623;28;19969;-78
2024/01/19 02:29:11;;;;;;;;;;;-0.10;99.90;;;;;;8454165;28;19999;-78
2024/01/19 02:33:12;;;;;;;;;;;-0.10;99.90;;;;;;8455963;28;19924;-78
2024/01/19 02:37:14;;;;;;;;;;;-0.10;99.90;;;;;;8455870;28;19934;-78
2024/01/19 02:41:16;;;;;;;;;;;-0.10;99.90;;;;;;8432049;28;19924;-78
2024/01/19 02:45:18;;;;;;;;;;;-0.20;99.90;;;;;;8438715;28;19939;-78
2024/01/19 02:49:19;;;;;;;;;;;-0.20;99.90;;;;;;8456738;28;19939;-78
2024/01/19 02:53:21;;;;;;;;;;;-0.20;99.90;;;;;;8437741;28;19924;-78
2024/01/19 02:57:23;;;;;;;;;;;-0.30;99.90;;;;;;8442066;28;20328;-78
2024/01/19 03:01:25;;;;;;;;;;;-0.30;99.90;;;;;;8458931;28;20278;-78
2024/01/19 03:05:26;;;;;;;;;;;-0.30;99.90;;;;;;8460604;28;19967;-78
2024/01/19 03:14:35;;;;;;;;;;;-0.40;99.90;;;;;;8458380;28;20431;-77
2024/01/19 03:18:36;;;;;;;;;;;-0.40;99.90;;;;;;8460288;28;20439;-78
2024/01/19 03:22:38;;;;;;;;;;;-0.50;99.90;;;;;;8459650;28;19931;-77
2024/01/19 03:26:42;;;;;;;;;;;-0.50;99.90;;;;;;8448780;28;19927;-77
2024/01/19 03:30:43;;;;;;;;;;;-0.50;99.90;;;;;;8455661;28;19928;-77
2024/01/19 03:34:45;;;;;;;;;;;-0.50;99.90;;;;;;8460652;28;19931;-77
2024/01/19 03:38:47;;;;;;;;;;;-0.50;99.90;;;;;;8460793;28;19989;-77
2024/01/19 03:42:48;;;;;;;;;;;-0.60;99.90;;;;;;8460120;28;19928;-77
2024/01/19 03:46:50;;;;;;;;;;;-0.60;99.90;;;;;;8461047;28;19924;-77
2024/01/19 03:50:52;;;;;;;;;;;-0.60;99.90;;;;;;8439805;27;19967;-77
2024/01/19 03:59:57;;;;;;;;;;;-0.60;99.90;;;;;;8457375;28;19987;-77
2024/01/19 04:03:59;;;;;;;;;;;-0.60;99.90;;;;;;8434878;28;19923;-77
2024/01/19 04:08:02;;;;;;;;;;;-0.60;99.90;;;;;;8441496;28;19924;-77
2024/01/19 04:12:16;;;;;;;;;;;-0.60;99.90;;;;;;8456046;27;19924;-77
2024/01/19 04:16:18;;;;;;;;;;;-0.70;99.90;;;;;;8457789;28;19930;-76
2024/01/19 04:20:20;;;;;;;;;;;-0.70;99.90;;;;;;8438886;28;19924;-77
2024/01/19 04:24:22;;;;;;;;;;;-0.70;99.90;;;;;;8438068;28;19924;-77
2024/01/19 04:28:23;;;;;;;;;;;-0.70;99.90;;;;;;8456769;28;19967;-77
2024/01/19 04:32:25;;;;;;;;;;;-0.70;99.90;;;;;;8450861;27;20012;-77
2024/01/19 04:36:27;;;;;;;;;;;-0.70;99.90;;;;;;8440362;28;19934;-77
2024/01/19 04:40:28;;;;;;;;;;;-0.60;99.90;;;;;;8457644;28;19946;-77
2024/01/19 04:44:30;;;;;;;;;;;-0.40;99.90;;;;;;8436861;28;19924;-77
2024/01/19 04:48:32;;;;;;;;;;;-0.20;99.90;;;;;;8440016;28;19931;-76
2024/01/19 04:52:34;;;;;;;;;;;0.00;99.90;;;;;;8443144;28;19931;-77
2024/01/19 04:56:36;;;;;;;;;;;0.20;99.90;;;;;;8442718;28;20330;-77
2024/01/19 05:00:37;;;;;;;;;;;0.30;99.90;;;;;;8434624;28;19932;-76
2024/01/19 05:04:40;;;;;;;;;;;0.40;99.90;;;;;;8449514;28;19939;-77
2024/01/19 05:08:42;;;;;;;;;;;0.50;99.90;;;;;;8444702;28;19931;-77
2024/01/19 05:12:43;;;;;;;;;;;0.50;99.90;;;;;;8466321;27;20454;-77
2024/01/19 05:16:45;;;;;;;;;;;0.50;99.90;;;;;;8439481;28;19924;-77
2024/01/19 05:20:47;;;;;;;;;;;0.40;99.90;;;;;;8438063;28;19927;-77
2024/01/19 05:24:49;;;;;;;;;;;0.30;99.90;;;;;;8432044;28;19976;-77
2024/01/19 05:28:50;;;;;;;;;;;0.10;99.90;;;;;;8453610;28;19924;-77
2024/01/19 05:32:52;;;;;;;;;;;0.00;99.90;;;;;;8450982;28;19927;-77
2024/01/19 05:36:54;;;;;;;;;;;-0.10;99.90;;;;;;8436244;28;19930;-77
2024/01/19 05:40:58;;;;;;;;;;;-0.20;99.90;;;;;;8453714;28;19924;-77
2024/01/19 05:45:00;;;;;;;;;;;-0.30;99.90;;;;;;8454463;28;20342;-77
2024/01/19 05:49:02;;;;;;;;;;;-0.40;99.90;;;;;;8455480;28;19976;-77
2024/01/19 05:53:04;;;;;;;;;;;-0.50;99.90;;;;;;8434806;28;20395;-77
2024/01/19 05:57:05;;;;;;;;;;;-0.60;99.90;;;;;;8448693;28;19932;-77
2024/01/19 06:01:07;;;;;;;;;;;-0.70;99.90;;;;;;8449236;28;19969;-77
2024/01/19 06:05:09;;;;;;;;;;;-0.80;99.90;;;;;;8434612;28;19949;-77
2024/01/19 06:09:23;;;;;;;;;;;-0.80;99.90;;;;;;8429677;28;19924;-76
2024/01/19 06:13:24;;;;;;;;;;;-0.90;99.90;;;;;;8431907;28;19924;-77
2024/01/19 06:17:26;;;;;;;;;;;-0.90;99.90;;;;;;8436585;28;19928;-77
2024/01/19 06:21:28;;;;;;;;;;;-1.00;99.90;;;;;;8454601;28;19932;-77
2024/01/19 06:25:30;;;;;;;;;;;-1.00;99.90;;;;;;8427587;28;20379;-76
2024/01/19 06:29:34;;;;;;;;;;;-1.00;99.90;;;;;;8435457;28;19924;-76
2024/01/19 06:33:37;;;;;;;;;;;-1.00;99.90;;;;;;8430676;28;19939;-76
2024/01/19 06:37:39;;;;;;;;;;;-1.00;99.90;;;;;;8464867;28;19928;-76
2024/01/19 06:41:44;;;;;;;;;;;-1.00;99.90;;;;;;8464917;28;20366;-76
2024/01/19 06:45:46;;;;;;;;;;;-1.10;99.90;;;;;;8461001;28;19950;-76
2024/01/19 06:49:47;;;;;;;;;;;-1.10;99.90;;;;;;8446067;28;19927;-76
2024/01/19 06:53:49;;;;;;;;;;;-1.20;99.90;;;;;;8462851;28;19930;-76
2024/01/19 06:57:51;;;;;;;;;;;-1.20;99.90;;;;;;8443337;28;19932;-76
2024/01/19 07:01:53;;;;;;;;;;;-1.20;99.90;;;;;;8462838;28;19924;-76
2024/01/19 07:05:56;;;;;;;;;;;-1.20;99.90;;;;;;8458480;28;19969;-76
2024/01/19 07:09:57;;;;;;;;;;;-1.20;99.90;;;;;;8461206;28;20359;-76
2024/01/19 07:13:59;;;;;;;;;;;-1.20;99.90;;;;;;8460828;28;19924;-76
2024/01/19 07:18:01;;;;;;;;;;;-1.20;99.90;;;;;;8460674;28;19977;-76
2024/01/19 07:22:03;;;;;;;;;;;-1.20;99.90;;;;;;8461679;28;19923;-76
2024/01/19 07:26:05;;;;;;;;;;;-1.30;99.90;;;;;;8451074;28;19992;-76
2024/01/19 07:30:06;;;;;;;;;;;-1.30;99.90;;;;;;8454890;28;19938;-75
2024/01/19 07:34:08;;;;;;;;;;;-1.30;99.90;;;;;;8437227;28;19970;-76
2024/01/19 07:38:10;;;;;;;;;;;-1.30;99.90;;;;;;8460098;28;20109;-76
2024/01/19 07:42:12;;;;;;;;;;;-1.30;99.90;;;;;;8468452;27;20504;-76
2024/01/19 07:46:14;;;;;;;;;;;-1.30;99.90;;;;;;8460417;28;19958;-75
2024/01/19 07:50:16;;;;;;;;;;;-1.30;99.90;;;;;;8458130;28;19924;-76
2024/01/19 07:54:18;;;;;;;;;;;-1.30;99.90;;;;;;8460251;28;19924;-76
2024/01/19 07:58:20;;;;;;;;;;;-1.20;99.90;;;;;;8440687;28;19973;-76
2024/01/19 08:02:21;;;;;;;;;;;-1.10;99.90;;;;;;8442459;28;19971;-76
2024/01/19 08:06:23;;;;;;;;;;;-0.90;99.90;;;;;;8439932;28;19924;-76
2024/01/19 08:10:25;;;;;;;;;;;-0.80;99.90;;;;;;8461570;28;19931;-76
2024/01/19 08:14:27;;;;;;;;;;;-0.70;99.90;;;;;;8462270;28;19923;-76
2024/01/19 08:18:33;;;;;;;;;;;-0.70;99.90;;;;;;8433516;28;20389;-76
2024/01/19 08:22:37;;;;;;;;;;;-0.70;99.90;;;;;;8433973;27;19959;-76
2024/01/19 08:26:39;;;;;;;;;;;-0.60;99.90;;;;;;8456019;28;19932;-76
2024/01/19 08:30:41;;;;;;;;;;;-0.60;99.90;;;;;;8462399;28;19982;-76
2024/01/19 08:34:43;;;;;;;;;;;-0.70;99.90;;;;;;8458243;27;19928;-75
2024/01/19 08:38:45;;;;;;;;;;;-0.70;99.90;;;;;;8461867;28;19976;-76
2024/01/19 08:42:46;;;;;;;;;;;-0.70;99.90;;;;;;8459214;28;20338;-75
2024/01/19 08:46:49;;;;;;;;;;;-0.70;99.90;;;;;;8453130;28;19928;-76
2024/01/19 08:50:51;;;;;;;;;;;-0.70;99.90;;;;;;8457713;28;19943;-76
2024/01/19 08:54:52;;;;;;;;;;;-0.60;99.90;;;;;;8459955;28;19924;-75
2024/01/19 08:58:54;;;;;;;;;;;-0.50;99.90;;;;;;8454780;28;19942;-75
2024/01/19 09:02:56;;;;;;;;;;;-0.40;99.90;;;;;;8459224;28;19954;-76
2024/01/19 09:07:03;;;;;;;;;;;-0.30;99.90;;;;;;8455833;28;19924;-75
2024/01/19 09:11:06;;;;;;;;;;;-0.10;99.90;;;;;;8458177;28;19930;-75
2024/01/19 09:15:07;;;;;;;;;;;0.10;99.90;;;;;;8456991;28;19957;-76
2024/01/19 09:19:09;;;;;;;;;;;0.30;99.90;;;;;;8460856;27;19924;-76
2024/01/19 09:23:11;;;;;;;;;;;0.50;99.90;;;;;;8462414;28;20375;-76
2024/01/19 09:27:13;;;;;;;;;;;0.80;99.90;;;;;;8466466;27;19943;-76
2024/01/19 09:31:15;;;;;;;;;;;1.10;99.90;;;;;;8461535;28;19928;-76
2024/01/19 09:35:16;;;;;;;;;;;1.30;99.90;;;;;;8455787;28;19923;-76
2024/01/19 09:39:20;;;;;;;;;;;1.50;99.90;;;;;;8460425;28;19924;-77
2024/01/19 09:43:21;;;;;;;;;;;1.80;99.90;;;;;;8443656;28;19957;-77
2024/01/19 09:47:28;;;;;;;;;;;2.10;99.90;;;;;;8446666;28;19978;-77
2024/01/19 09:51:39;;;;;;;;;;;2.30;99.90;;;;;;8453834;28;19924;-76
2024/01/19 09:55:40;;;;;;;;;;;2.40;99.90;;;;;;8452825;28;20379;-77
2024/01/19 09:59:43;;;;;;;;;;;2.40;99.90;;;;;;8439364;28;19931;-77
2024/01/19 10:03:45;;;;;;;;;;;2.50;99.90;;;;;;8458767;28;20291;-77
2024/01/19 10:07:47;;;;;;;;;;;2.60;99.90;;;;;;8463796;28;19928;-77
2024/01/19 10:11:50;;;;;;;;;;;2.60;99.90;;;;;;8449920;28;19924;-77
2024/01/19 10:15:52;;;;;;;;;;;2.80;99.90;;;;;;8465757;28;19988;-77
2024/01/19 10:19:54;;;;;;;;;;;3.00;99.90;;;;;;8462021;28;20389;-77
2024/01/19 10:24:09;;;;;;;;;;;3.20;99.90;;;;;;8462330;28;19931;-77
2024/01/19 10:28:28;;;;;;;;;;;3.40;99.90;;;;;;8437647;28;19924;-77
2024/01/19 10:32:31;;;;;;;;;;;3.40;99.90;;;;;;8437850;28;19924;-78
2024/01/19 10:36:36;;;;;;;;;;;3.40;99.90;;;;;;8462769;27;20417;-77
2024/01/19 10:40:38;;;;;;;;;;;3.40;99.90;;;;;;8465862;28;19924;-78
2024/01/19 10:44:40;;;;;;;;;;;3.50;99.90;;;;;;8446086;28;20452;-77
2024/01/19 10:48:46;;;;;;;;;;;3.30;99.90;;;;;;8464434;28;19979;-77
2024/01/19 10:52:49;;;;;;;;;;;3.20;99.90;;;;;;8439062;28;19924;-78
2024/01/19 10:57:03;;;;;;;;;;;3.50;99.90;;;;;;8447117;28;19931;-79
2024/01/19 11:01:16;;;;;;;;;;;3.90;99.90;;;;;;8461120;28;19980;-78
2024/01/19 11:05:21;;;;;;;;;;;4.30;99.90;;;;;;8461769;28;19924;-77
2024/01/19 11:09:23;;;;;;;;;;;4.90;99.90;;;;;;8444719;28;19928;-79
2024/01/19 11:13:25;;;;;;;;;;;5.30;99.90;;;;;;8458113;28;20436;-78
2024/01/19 11:17:28;;;;;;;;;;;5.80;99.90;;;;;;8459255;28;19923;-78
2024/01/19 11:21:29;;;;;;;;;;;6.20;99.90;;;;;;8459099;28;19924;-78
2024/01/19 11:25:40;;;;;;;;;;;6.50;99.90;;;;;;8432126;28;19923;-79
2024/01/19 11:29:42;;;;;;;;;;;6.70;99.90;;;;;;8440678;28;19969;-79
2024/01/19 11:33:45;;;;;;;;;;;6.90;99.90;;;;;;8459924;28;19981;-79
2024/01/19 11:37:47;;;;;;;;;;;7.10;99.90;;;;;;8461301;28;19928;-78
2024/01/19 11:41:49;;;;;;;;;;;7.40;99.90;;;;;;8455592;28;20018;-78
2024/01/19 11:45:52;;;;;;;;;;;7.60;99.90;;;;;;8457457;28;20287;-78
2024/01/19 11:49:54;;;;;;;;;;;7.90;99.90;;;;;;8407807;28;19981;-78
2024/01/19 11:53:57;;;;;;;;;;;8.10;99.90;;;;;;8395562;28;20454;-78
2024/01/19 11:58:18;;;;;;;;;;;8.10;99.90;;;;;;8397164;28;20348;-78
2024/01/19 12:02:20;;;;;;;;;;;8.20;99.90;;;;;;8394477;28;20411;-78
2024/01/19 12:06:22;;;;;;;;;;;8.40;99.90;;;;;;8395159;28;19925;-78
2024/01/19 12:10:24;;;;;;;;;;;8.50;99.90;;;;;;8408725;28;19964;-79
2024/01/19 12:14:25;;;;;;;;;;;8.60;99.90;;;;;;8396197;28;19931;-78
2024/01/19 12:18:27;;;;;;;;;;;8.60;99.90;;;;;;8395121;28;19970;-78
2024/01/19 12:22:30;;;;;;;;;;;8.40;99.90;;;;;;8389416;28;20425;-78
2024/01/19 12:26:32;;;;;;;;;;;8.30;99.90;;;;;;8384366;28;19924;-77
2024/01/19 12:30:35;;;;;;;;;;;8.50;99.90;;;;;;8363057;28;20269;-78
2024/01/19 12:34:37;;;;;;;;;;;8.80;99.90;;;;;;8392196;28;19950;-78
2024/01/19 12:38:42;;;;;;;;;;;9.00;99.90;;;;;;8362716;28;19925;-78
2024/01/19 12:42:43;;;;;;;;;;;9.10;99.90;;;;;;8363720;28;19925;-78
2024/01/19 12:46:48;;;;;;;;;;;9.30;99.90;;;;;;8396251;28;20219;-78
2024/01/19 12:50:50;;;;;;;;;;;9.20;99.90;;;;;;8433337;28;19923;-78
2024/01/19 12:54:51;;;;;;;;;;;9.00;99.90;;;;;;8426384;28;19928;-77
2024/01/19 12:59:04;;;;;;;;;;;8.80;99.90;;;;;;8418779;28;19924;-78
2024/01/19 13:03:06;;;;;;;;;;;8.60;99.90;;;;;;8426222;28;19943;-77
2024/01/19 13:07:07;;;;;;;;;;;8.40;99.90;;;;;;8438849;28;19927;-78
2024/01/19 13:11:09;;;;;;;;;;;8.50;99.90;;;;;;8424217;28;19928;-78
2024/01/19 13:15:13;;;;;;;;;;;8.70;99.90;;;;;;8422303;28;19935;-78
2024/01/19 13:19:15;;;;;;;;;;;8.90;99.90;;;;;;8432958;28;20024;-78
2024/01/19 13:23:17;;;;;;;;;;;9.20;99.90;;;;;;8410833;28;19969;-78
2024/01/19 13:27:19;;;;;;;;;;;9.40;99.90;;;;;;8418099;28;19954;-78
2024/01/19 13:31:20;;;;;;;;;;;9.30;99.90;;;;;;8426389;28;19928;-77
2024/01/19 13:35:23;;;;;;;;;;;9.00;99.90;;;;;;8427207;28;20429;-77
2024/01/19 13:39:25;;;;;;;;;;;8.20;99.90;;;;;;8425132;28;19924;-77
2024/01/19 13:43:27;;;;;;;;;;;7.50;99.90;;;;;;8415049;28;20269;-78
2024/01/19 13:47:29;;;;;;;;;;;7.10;99.90;;;;;;8418692;28;20473;-77
2024/01/19 13:51:31;;;;;;;;;;;6.70;99.90;;;;;;8423252;28;19931;-77
2024/01/19 13:55:32;;;;;;;;;;;6.50;99.90;;;;;;8409416;28;19928;-77
2024/01/19 13:59:34;;;;;;;;;;;6.30;99.90;;;;;;8409839;28;19930;-77
2024/01/19 14:03:36;;;;;;;;;;;6.20;99.90;;;;;;8413384;28;19924;-77
2024/01/19 14:07:38;;;;;;;;;;;6.10;99.90;;;;;;8411260;28;20465;-77
2024/01/19 14:11:41;;;;;;;;;;;6.00;99.90;;;;;;8426940;28;19938;-77
2024/01/19 14:15:44;;;;;;;;;;;6.00;99.90;;;;;;8413499;28;19932;-77
2024/01/19 14:19:52;;;;;;;;;;;6.00;99.90;;;;;;8430218;28;19928;-77
2024/01/19 14:23:53;;;;;;;;;;;6.10;99.90;;;;;;8438333;28;19951;-77
2024/01/19 14:27:55;;;;;;;;;;;6.00;99.90;;;;;;8419563;28;19932;-77
2024/01/19 14:31:58;;;;;;;;;;;6.00;99.90;;;;;;8438165;28;19924;-77
2024/01/19 14:35:59;;;;;;;;;;;5.90;99.90;;;;;;8437903;28;19924;-77
2024/01/19 14:40:04;;;;;;;;;;;5.80;99.90;;;;;;8428236;28;20066;-77
2024/01/19 14:44:06;;;;;;;;;;;5.70;99.90;;;;;;8436741;28;19977;-77
2024/01/19 14:48:11;;;;;;;;;;;5.60;99.90;;;;;;8437008;28;19931;-77
2024/01/19 14:52:13;;;;;;;;;;;5.50;99.90;;;;;;8427642;28;19938;-77
2024/01/19 14:56:15;;;;;;;;;;;5.50;99.90;;;;;;8443414;28;19928;-77
2024/01/19 15:00:18;;;;;;;;;;;5.50;99.90;;;;;;8421567;28;20333;-77
2024/01/19 15:04:20;;;;;;;;;;;5.70;99.90;;;;;;8428451;28;19928;-77
2024/01/19 15:08:22;;;;;;;;;;;6.30;99.90;;;;;;8442655;28;19973;-77
2024/01/19 15:12:23;;;;;;;;;;;6.90;99.90;;;;;;8440956;28;20057;-77
2024/01/19 15:16:26;;;;;;;;;;;7.20;99.90;;;;;;8440860;28;20452;-76
2024/01/19 15:20:28;;;;;;;;;;;7.30;99.90;;;;;;8439962;28;19930;-77
2024/01/19 15:24:31;;;;;;;;;;;7.30;99.90;;;;;;8441373;28;19924;-77
2024/01/19 15:28:32;;;;;;;;;;;7.20;99.90;;;;;;8432563;28;19994;-77
2024/01/19 15:32:36;;;;;;;;;;;7.10;99.90;;;;;;8440641;28;19932;-77
2024/01/19 15:36:40;;;;;;;;;;;6.80;99.90;;;;;;8444135;28;20394;-77
2024/01/19 15:40:41;;;;;;;;;;;6.40;99.90;;;;;;8443896;28;19967;-77
2024/01/19 15:44:44;;;;;;;;;;;6.00;99.90;;;;;;8440565;27;20374;-77
2024/01/19 15:48:47;;;;;;;;;;;5.70;99.90;;;;;;8413612;28;19928;-77
2024/01/19 15:52:59;;;;;;;;;;;5.50;99.90;;;;;;8412161;28;19928;-77
2024/01/19 15:57:01;;;;;;;;;;;5.30;99.90;;;;;;8399849;28;19925;-77
2024/01/19 16:01:03;;;;;;;;;;;4.90;99.90;;;;;;8391465;28;19936;-77
2024/01/19 16:05:04;;;;;;;;;;;4.50;99.90;;;;;;8397655;28;19936;-78
2024/01/19 16:09:09;;;;;;;;;;;4.20;99.90;;;;;;8404300;28;19924;-77
2024/01/19 16:13:11;;;;;;;;;;;3.90;99.90;;;;;;8407361;28;19970;-77
2024/01/19 16:17:12;;;;;;;;;;;3.70;99.90;;;;;;8401195;28;20829;-77
2024/01/19 16:21:18;;;;;;;;;;;3.60;99.90;;;;;;8402893;28;20406;-77
2024/01/19 16:25:20;;;;;;;;;;;3.40;99.90;;;;;;8394968;28;19942;-77
2024/01/19 16:29:21;;;;;;;;;;;3.30;99.90;;;;;;8408134;28;19924;-77
2024/01/19 16:33:23;;;;;;;;;;;3.30;99.90;;;;;;8397402;28;19924;-77
2024/01/19 16:37:25;;;;;;;;;;;3.20;99.90;;;;;;8391671;28;19932;-77
2024/01/19 16:41:27;;;;;;;;;;;3.20;99.90;;;;;;8402980;28;20387;-77
2024/01/19 16:45:28;;;;;;;;;;;3.10;99.90;;;;;;8398390;28;20287;-77
2024/01/19 16:49:30;;;;;;;;;;;3.10;99.90;;;;;;8425298;28;19924;-77
2024/01/19 16:53:32;;;;;;;;;;;3.00;99.90;;;;;;8411589;28;19928;-77
2024/01/19 16:57:33;;;;;;;;;;;3.00;99.90;;;;;;8425593;27;19946;-77
2024/01/19 17:01:38;;;;;;;;;;;2.90;99.90;;;;;;8428882;28;19963;-77
2024/01/19 17:05:40;;;;;;;;;;;2.90;99.90;;;;;;8427237;28;19974;-77
2024/01/19 17:14:46;;;;;;;;;;;2.60;99.90;;;;;;8421842;28;19973;-76
2024/01/19 17:18:47;;;;;;;;;;;2.60;99.90;;;;;;8422120;28;19931;-77
2024/01/19 17:22:49;;;;;;;;;;;2.50;99.90;;;;;;8427468;28;19935;-77
2024/01/19 17:26:51;;;;;;;;;;;2.50;99.90;;;;;;8414947;28;19935;-77
2024/01/19 17:30:52;;;;;;;;;;;2.40;99.90;;;;;;8422524;28;19931;-77
2024/01/19 17:34:54;;;;;;;;;;;2.40;99.90;;;;;;8422890;28;19992;-77
2024/01/19 17:38:56;;;;;;;;;;;2.40;99.90;;;;;;8423079;28;19924;-77
2024/01/19 17:42:57;;;;;;;;;;;2.30;99.90;;;;;;8420729;28;19924;-77
2024/01/19 17:46:59;;;;;;;;;;;2.20;99.90;;;;;;8422182;28;19930;-77
2024/01/19 17:51:01;;;;;;;;;;;2.20;99.90;;;;;;8406379;28;19955;-77
2024/01/19 17:55:03;;;;;;;;;;;2.10;99.90;;;;;;8424600;28;20359;-77
2024/01/19 17:59:05;;;;;;;;;;;2.10;99.90;;;;;;8425561;28;19932;-77
2024/01/19 18:03:08;;;;;;;;;;;2.00;99.90;;;;;;8407821;28;20934;-77
2024/01/19 18:07:10;;;;;;;;;;;2.00;99.90;;;;;;8437306;28;20071;-76
2024/01/19 18:11:12;;;;;;;;;;;2.00;99.90;;;;;;8453068;28;19927;-77
2024/01/19 18:15:13;;;;;;;;;;;2.00;99.90;;;;;;8412745;28;19932;-77
2024/01/19 18:19:15;;;;;;;;;;;1.90;99.90;;;;;;8423902;28;19930;-76
2024/01/19 18:23:17;;;;;;;;;;;1.90;99.90;;;;;;8421455;28;20299;-76
2024/01/19 18:27:19;;;;;;;;;;;1.80;99.90;;;;;;8440222;28;20362;-76
2024/01/19 18:31:21;;;;;;;;;;;1.80;99.90;;;;;;8417460;28;19924;-76
2024/01/19 18:35:23;;;;;;;;;;;1.70;99.90;;;;;;8434862;28;19929;-76
2024/01/19 18:39:25;;;;;;;;;;;1.60;99.90;;;;;;8412058;28;19938;-77
2024/01/19 18:43:26;;;;;;;;;;;1.60;99.90;;;;;;8438368;28;19939;-77
2024/01/19 18:47:28;;;;;;;;;;;1.60;99.90;;;;;;8439516;27;20418;-77
2024/01/19 18:51:30;;;;;;;;;;;1.50;99.90;;;;;;8426017;28;19931;-77
2024/01/19 18:55:32;;;;;;;;;;;1.40;99.90;;;;;;8419273;28;20469;-76
2024/01/19 18:59:38;;;;;;;;;;;1.40;99.90;;;;;;8425744;28;20018;-77
2024/01/19 19:03:40;;;;;;;;;;;1.40;99.90;;;;;;8427740;28;20383;-77
2024/01/19 19:07:43;;;;;;;;;;;1.40;99.90;;;;;;8412970;28;19928;-77
2024/01/19 19:11:45;;;;;;;;;;;1.30;99.90;;;;;;8438316;28;20341;-77
2024/01/19 19:15:47;;;;;;;;;;;1.30;99.90;;;;;;8420963;28;19939;-77
2024/01/19 19:19:48;;;;;;;;;;;1.30;99.90;;;;;;8426710;28;19989;-76
2024/01/19 19:23:51;;;;;;;;;;;1.30;99.90;;;;;;8432386;28;19924;-77
2024/01/19 19:27:56;;;;;;;;;;;1.30;99.90;;;;;;8417400;28;19931;-77
2024/01/19 19:31:57;;;;;;;;;;;1.20;99.90;;;;;;8436440;28;19970;-76
2024/01/19 19:36:02;;;;;;;;;;;1.20;99.90;;;;;;8429121;28;19923;-77
2024/01/19 19:40:04;;;;;;;;;;;1.20;99.90;;;;;;8431068;28;20383;-77
2024/01/19 19:44:06;;;;;;;;;;;1.10;99.90;;;;;;8433418;28;20375;-77
2024/01/19 19:48:09;;;;;;;;;;;1.10;99.90;;;;;;8430463;28;19939;-77
2024/01/19 19:52:11;;;;;;;;;;;1.10;99.90;;;;;;8428960;28;19924;-77
2024/01/19 19:56:13;;;;;;;;;;;1.20;99.90;;;;;;8430525;28;19947;-77
2024/01/19 20:00:15;;;;;;;;;;;1.20;99.90;;;;;;8421302;28;19928;-77
2024/01/19 20:04:17;;;;;;;;;;;1.20;99.90;;;;;;8408675;28;20370;-77
2024/01/19 20:08:19;;;;;;;;;;;1.30;99.90;;;;;;8421137;28;19982;-77
2024/01/19 20:12:21;;;;;;;;;;;1.30;99.90;;;;;;8427547;28;19924;-77
2024/01/19 20:16:23;;;;;;;;;;;1.20;99.90;;;;;;8443227;28;19942;-77
2024/01/19 20:20:24;;;;;;;;;;;1.20;99.90;;;;;;8430082;28;20413;-77
2024/01/19 20:24:26;;;;;;;;;;;1.20;99.90;;;;;;8416180;28;19930;-77
2024/01/19 20:28:28;;;;;;;;;;;1.20;99.90;;;;;;8422850;28;24280;-77
2024/01/19 20:32:29;;;;;;;;;;;1.10;99.90;;;;;;8431507;27;19935;-77
2024/01/19 20:36:31;;;;;;;;;;;1.10;99.90;;;;;;8432690;28;19928;-77
2024/01/19 20:40:33;;;;;;;;;;;1.10;99.90;;;;;;8437395;28;19932;-76
2024/01/19 20:44:35;;;;;;;;;;;1.00;99.90;;;;;;8427684;28;19932;-77
2024/01/19 20:48:36;;;;;;;;;;;1.00;99.90;;;;;;8422625;28;19977;-77
2024/01/19 20:52:38;;;;;;;;;;;0.90;99.90;;;;;;8409860;28;19924;-77
2024/01/19 20:56:41;;;;;;;;;;;0.90;99.90;;;;;;8425604;28;19928;-77
2024/01/19 21:00:42;;;;;;;;;;;0.80;99.90;;;;;;8421207;28;20367;-77
2024/01/19 21:04:44;;;;;;;;;;;0.80;99.90;;;;;;8427134;28;19940;-77
2024/01/19 21:08:46;;;;;;;;;;;0.80;99.90;;;;;;8406159;28;19923;-76
2024/01/19 21:13:03;;;;;;;;;;;0.70;99.90;;;;;;8424023;28;19935;-77
2024/01/19 21:17:05;;;;;;;;;;;0.70;99.90;;;;;;8422370;28;19932;-77
2024/01/19 21:21:08;;;;;;;;;;;0.60;99.90;;;;;;8428136;28;19977;-77
2024/01/19 21:25:10;;;;;;;;;;;0.60;99.90;;;;;;8427686;27;20346;-77
2024/01/19 21:29:11;;;;;;;;;;;0.60;99.90;;;;;;8422156;28;19928;-77
2024/01/19 21:33:13;;;;;;;;;;;0.50;99.90;;;;;;8427489;28;24249;-77
2024/01/19 21:37:15;;;;;;;;;;;0.50;99.90;;;;;;8411228;28;20398;-77
2024/01/19 21:41:17;;;;;;;;;;;0.50;99.90;;;;;;8428405;28;20483;-77
2024/01/19 21:45:19;;;;;;;;;;;0.50;99.90;;;;;;8427634;28;19971;-76
2024/01/19 21:49:21;;;;;;;;;;;0.50;99.90;;;;;;8422327;28;19977;-77
2024/01/19 21:53:23;;;;;;;;;;;0.40;99.90;;;;;;8423675;28;19924;-77
2024/01/19 22:02:28;;;;;;;;;;;0.40;99.90;;;;;;8437298;28;20276;-77
2024/01/19 22:06:29;;;;;;;;;;;0.30;99.90;;;;;;8438922;28;19923;-77
2024/01/19 22:10:31;;;;;;;;;;;0.20;99.90;;;;;;8460576;27;19931;-76
2024/01/19 22:14:33;;;;;;;;;;;0.30;99.90;;;;;;8439315;28;19992;-77
2024/01/19 22:18:38;;;;;;;;;;;0.20;99.90;;;;;;8456331;28;19923;-77
2024/01/19 22:22:40;;;;;;;;;;;0.20;99.90;;;;;;8460319;28;19963;-77
2024/01/19 22:26:42;;;;;;;;;;;0.20;99.90;;;;;;8453178;28;19934;-76
2024/01/19 22:30:44;;;;;;;;;;;0.10;99.90;;;;;;8464615;28;20329;-77
2024/01/19 22:34:45;;;;;;;;;;;0.10;99.90;;;;;;8465128;27;19935;-77
2024/01/19 22:38:47;;;;;;;;;;;0.10;99.90;;;;;;8444999;28;19929;-77
2024/01/19 22:42:49;;;;;;;;;;;0.10;99.90;;;;;;8445757;28;20551;-77
2024/01/19 22:46:51;;;;;;;;;;;0.10;99.90;;;;;;8439223;28;19931;-77
2024/01/19 22:50:52;;;;;;;;;;;0.10;99.90;;;;;;8439629;28;19924;-77
2024/01/19 22:55:00;;;;;;;;;;;0.10;99.90;;;;;;8457192;28;19923;-77
2024/01/19 22:59:03;;;;;;;;;;;0.00;99.90;;;;;;8461497;28;19931;-77
2024/01/19 23:03:05;;;;;;;;;;;0.00;99.90;;;;;;8442940;27;19927;-76
2024/01/19 23:07:06;;;;;;;;;;;0.00;99.90;;;;;;8454940;27;19935;-77
2024/01/19 23:11:08;;;;;;;;;;;-0.10;99.90;;;;;;8449016;28;20263;-77
2024/01/19 23:15:12;;;;;;;;;;;-0.10;99.90;;;;;;8441968;27;19969;-77
2024/01/19 23:19:14;;;;;;;;;;;-0.10;99.90;;;;;;8460353;28;19972;-77
2024/01/19 23:23:21;;;;;;;;;;;-0.10;99.90;;;;;;8449199;28;20295;-77
2024/01/19 23:27:22;;;;;;;;;;;-0.10;99.90;;;;;;8428340;28;19928;-77
2024/01/19 23:31:24;;;;;;;;;;;-0.20;99.90;;;;;;8457057;28;19975;-77
2024/01/19 23:35:26;;;;;;;;;;;-0.20;99.90;;;;;;8456105;28;19923;-77
2024/01/19 23:39:27;;;;;;;;;;;-0.20;99.90;;;;;;8451001;28;20252;-77
2024/01/19 23:43:29;;;;;;;;;;;-0.30;99.90;;;;;;8441518;28;19970;-77
2024/01/19 23:47:31;;;;;;;;;;;-0.30;99.90;;;;;;8440562;28;19989;-77
2024/01/19 23:51:33;;;;;;;;;;;-0.30;99.90;;;;;;8457943;27;20333;-77
2024/01/19 23:55:35;;;;;;;;;;;-0.40;99.90;;;;;;8458074;28;19977;-77
2024/01/19 23:59:36;;;;;;;;;;;-0.40;99.90;;;;;;8457361;28;19942;-77
